createdAt,value
2018-03-22T00:00:51.298Z,21.53
2018-03-22T00:03:18.877Z,20.70
2018-03-22T00:05:46.467Z,16.53
2018-03-22T00:08:14.026Z,17.67
2018-03-22T00:10:41.604Z,15.20
2018-03-22T00:13:09.936Z,20.07
2018-03-22T00:15:38.327Z,20.13
2018-03-22T00:18:05.922Z,17.93
2018-03-22T00:20:33.449Z,16.03
2018-03-22T00:23:01.076Z,16.33
2018-03-22T00:25:28.642Z,18.60
2018-03-22T00:27:56.221Z,18.07
2018-03-22T00:30:23.836Z,17.77
2018-03-22T00:32:51.380Z,16.67
2018-03-22T00:35:18.998Z,17.70
2018-03-22T00:37:46.549Z,17.67
2018-03-22T00:40:14.133Z,18.57
2018-03-22T00:42:41.687Z,16.93
2018-03-22T00:45:09.251Z,16.37
2018-03-22T00:47:36.833Z,15.53
2018-03-22T00:50:05.163Z,16.23
2018-03-22T00:52:32.779Z,16.43
2018-03-22T00:55:00.308Z,15.63
2018-03-22T00:57:27.844Z,15.30
2018-03-22T00:59:55.399Z,22.33
2018-03-22T01:02:22.994Z,16.70
2018-03-22T01:04:50.519Z,17.60
2018-03-22T01:07:18.084Z,18.13
2018-03-22T01:09:45.916Z,14.70
2018-03-22T01:12:13.522Z,17.90
2018-03-22T01:14:41.119Z,14.83
2018-03-22T01:17:08.691Z,16.93
2018-03-22T01:19:36.226Z,17.23
2018-03-22T01:22:03.775Z,16.63
2018-03-22T01:24:31.330Z,18.87
2018-03-22T01:26:58.868Z,24.37
2018-03-22T01:29:26.432Z,17.50
2018-03-22T01:31:54.011Z,17.40
2018-03-22T01:34:21.561Z,18.60
2018-03-22T01:36:49.128Z,15.17
2018-03-22T01:39:16.699Z,16.47
2018-03-22T01:41:44.257Z,14.80
2018-03-22T01:44:11.850Z,15.93
2018-03-22T01:46:39.406Z,13.10
2018-03-22T01:51:49.691Z,19.50
2018-03-22T01:54:17.256Z,15.67
2018-03-22T01:56:45.557Z,13.23
2018-03-22T01:59:13.131Z,17.67
2018-03-22T02:01:40.701Z,14.53
2018-03-22T02:04:08.293Z,21.47
2018-03-22T02:06:36.672Z,16.53
2018-03-22T02:09:05.015Z,15.87
2018-03-22T02:11:32.535Z,14.43
2018-03-22T02:14:00.877Z,12.37
2018-03-22T02:16:28.447Z,13.90
2018-03-22T02:18:55.975Z,14.37
2018-03-22T02:21:23.536Z,13.30
2018-03-22T02:23:51.083Z,11.00
2018-03-22T02:26:18.645Z,10.80
2018-03-22T02:28:46.232Z,13.77
2018-03-22T02:31:13.862Z,11.67
2018-03-22T02:33:42.219Z,13.03
2018-03-22T02:36:09.753Z,10.47
2018-03-22T02:38:37.311Z,11.37
2018-03-22T02:41:05.644Z,11.33
2018-03-22T02:43:33.179Z,12.07
2018-03-22T02:46:00.786Z,13.20
2018-03-22T02:48:28.326Z,11.30
2018-03-22T02:50:55.864Z,12.70
2018-03-22T02:53:23.437Z,18.13
2018-03-22T02:55:50.981Z,14.20
2018-03-22T02:58:18.577Z,12.47
2018-03-22T03:00:46.105Z,13.63
2018-03-22T03:03:13.678Z,13.70
2018-03-22T03:05:41.228Z,12.60
2018-03-22T03:08:08.772Z,17.10
2018-03-22T03:10:36.338Z,16.00
2018-03-22T03:13:03.903Z,16.23
2018-03-22T03:15:31.476Z,14.57
2018-03-22T03:17:59.057Z,13.67
2018-03-22T03:20:26.638Z,14.73
2018-03-22T03:22:54.241Z,14.50
2018-03-22T03:25:21.845Z,13.87
2018-03-22T03:27:49.433Z,10.07
2018-03-22T03:30:17.047Z,13.13
2018-03-22T03:32:44.571Z,16.17
2018-03-22T03:35:12.173Z,14.03
2018-03-22T03:37:39.707Z,15.80
2018-03-22T03:40:07.271Z,13.60
2018-03-22T03:42:34.814Z,16.57
2018-03-22T03:45:02.414Z,15.90
2018-03-22T03:47:30.034Z,12.40
2018-03-22T03:49:57.604Z,11.93
2018-03-22T03:52:25.195Z,12.03
2018-03-22T03:54:52.726Z,13.90
2018-03-22T03:57:20.285Z,11.90
2018-03-22T03:59:47.832Z,17.00
2018-03-22T04:02:15.354Z,16.07
2018-03-22T04:04:42.970Z,13.83
2018-03-22T04:07:10.522Z,14.93
2018-03-22T04:09:38.087Z,13.70
2018-03-22T04:12:05.661Z,12.93
2018-03-22T04:14:33.236Z,13.77
2018-03-22T04:17:00.834Z,9.50
2018-03-22T04:19:29.295Z,11.23
2018-03-22T04:21:56.891Z,11.87
2018-03-22T04:24:24.446Z,14.00
2018-03-22T04:26:52.143Z,12.13
2018-03-22T04:29:19.650Z,14.10
2018-03-22T04:31:48.063Z,12.40
2018-03-22T04:34:15.595Z,12.53
2018-03-22T04:36:43.188Z,12.43
2018-03-22T04:39:10.785Z,15.50
2018-03-22T04:41:38.336Z,15.33
2018-03-22T04:44:05.915Z,13.57
2018-03-22T04:46:33.491Z,13.07
2018-03-22T04:49:01.052Z,14.33
2018-03-22T04:51:28.632Z,13.83
2018-03-22T04:53:56.158Z,14.80
2018-03-22T04:56:23.718Z,12.60
2018-03-22T04:58:51.285Z,13.73
2018-03-22T05:01:18.990Z,12.63
2018-03-22T05:03:46.553Z,12.50
2018-03-22T05:06:14.136Z,14.77
2018-03-22T05:08:41.774Z,12.33
2018-03-22T05:11:09.394Z,13.43
2018-03-22T05:13:36.940Z,19.70
2018-03-22T05:16:05.296Z,17.10
2018-03-22T05:18:32.872Z,13.00
2018-03-22T05:21:01.193Z,12.03
2018-03-22T05:23:28.763Z,15.10
2018-03-22T05:25:57.971Z,16.37
2018-03-22T05:28:26.436Z,20.37
2018-03-22T05:30:54.039Z,14.77
2018-03-22T05:33:21.609Z,14.77
2018-03-22T05:35:49.138Z,14.03
2018-03-22T05:38:16.690Z,17.63
2018-03-22T05:40:44.233Z,16.60
2018-03-22T05:43:11.866Z,18.13
2018-03-22T05:45:39.528Z,14.00
2018-03-22T05:48:07.085Z,19.40
2018-03-22T05:50:35.587Z,18.27
2018-03-22T05:53:03.125Z,17.83
2018-03-22T05:55:30.720Z,16.30
2018-03-22T05:57:58.242Z,15.60
2018-03-22T06:00:26.582Z,18.57
2018-03-22T06:02:54.124Z,22.30
2018-03-22T06:05:21.706Z,19.87
2018-03-22T06:07:49.330Z,18.77
2018-03-22T06:10:16.886Z,18.57
2018-03-22T06:12:44.496Z,19.50
2018-03-22T06:15:12.036Z,16.37
2018-03-22T06:17:39.659Z,18.97
2018-03-22T06:20:07.271Z,17.30
2018-03-22T06:22:35.022Z,19.27
2018-03-22T06:25:02.634Z,21.60
2018-03-22T06:27:30.224Z,17.80
2018-03-22T06:29:57.802Z,13.97
2018-03-22T06:32:25.366Z,17.23
2018-03-22T06:34:52.990Z,19.40
2018-03-22T06:37:20.589Z,14.77
2018-03-22T06:39:48.335Z,17.10
2018-03-22T06:42:15.886Z,16.73
2018-03-22T06:44:43.488Z,16.27
2018-03-22T06:47:11.031Z,14.23
2018-03-22T06:49:38.795Z,16.27
2018-03-22T06:52:06.329Z,20.90
2018-03-22T06:54:33.917Z,17.70
2018-03-22T06:57:01.528Z,15.80
2018-03-22T06:59:29.197Z,20.10
2018-03-22T07:01:57.069Z,18.10
2018-03-22T07:04:24.613Z,18.43
2018-03-22T07:06:53.023Z,15.90
2018-03-22T07:09:20.528Z,17.73
2018-03-22T07:11:48.124Z,19.10
2018-03-22T07:14:16.468Z,15.20
2018-03-22T07:16:44.951Z,19.87
2018-03-22T07:19:12.601Z,17.47
2018-03-22T07:21:45.316Z,16.90
2018-03-22T07:24:12.945Z,15.83
2018-03-22T07:26:41.269Z,19.60
2018-03-22T07:29:08.851Z,30.17
2018-03-22T07:31:36.491Z,22.27
2018-03-22T07:34:04.146Z,16.70
2018-03-22T07:36:32.525Z,20.37
2018-03-22T07:39:00.849Z,13.53
2018-03-22T07:41:28.614Z,21.20
2018-03-22T07:43:56.277Z,14.77
2018-03-22T07:46:23.834Z,14.90
2018-03-22T07:48:51.509Z,11.73
2018-03-22T07:51:19.057Z,14.63
2018-03-22T07:53:46.624Z,14.03
2018-03-22T07:56:14.265Z,9.37
2018-03-22T07:58:41.840Z,12.57
2018-03-22T08:01:09.504Z,17.07
2018-03-22T08:03:37.124Z,15.17
2018-03-22T08:06:04.709Z,13.83
2018-03-22T08:08:32.373Z,11.37
2018-03-22T08:10:59.973Z,9.93
2018-03-22T08:13:27.855Z,14.80
2018-03-22T08:15:55.476Z,7.50
2018-03-22T08:18:23.404Z,9.87
2018-03-22T08:20:51.378Z,8.07
2018-03-22T08:23:19.233Z,8.53
2018-03-22T08:25:46.860Z,11.10
2018-03-22T08:28:14.420Z,8.33
2018-03-22T08:30:42.058Z,9.90
2018-03-22T08:33:09.686Z,8.87
2018-03-22T08:35:37.386Z,7.90
2018-03-22T08:38:04.954Z,7.93
2018-03-22T08:40:32.513Z,10.43
2018-03-22T08:43:00.053Z,14.47
2018-03-22T08:45:27.700Z,12.27
2018-03-22T08:47:55.336Z,6.93
2018-03-22T08:50:22.960Z,6.63
2018-03-22T08:52:50.787Z,8.40
2018-03-22T08:55:18.437Z,7.57
2018-03-22T08:57:46.060Z,7.40
2018-03-22T09:00:13.711Z,7.13
2018-03-22T09:02:41.290Z,9.43
2018-03-22T09:05:08.959Z,9.25
2018-03-22T09:07:36.614Z,9.27
2018-03-22T09:10:04.456Z,10.17
2018-03-22T09:12:32.345Z,7.43
2018-03-22T09:14:59.953Z,7.33
2018-03-22T09:17:27.546Z,12.60
2018-03-22T09:19:55.122Z,7.53
2018-03-22T09:22:22.742Z,8.50
2018-03-22T09:24:50.335Z,9.77
2018-03-22T09:27:18.131Z,6.17
2018-03-22T09:29:45.709Z,9.60
2018-03-22T09:32:13.292Z,8.87
2018-03-22T09:34:40.889Z,5.50
2018-03-22T09:37:08.463Z,7.43
2018-03-22T09:39:36.076Z,12.03
2018-03-22T09:42:04.659Z,8.87
2018-03-22T09:44:32.349Z,12.07
2018-03-22T09:46:59.918Z,7.83
2018-03-22T09:49:27.503Z,7.00
2018-03-22T09:51:55.896Z,5.97
2018-03-22T09:54:23.514Z,8.43
2018-03-22T09:56:51.126Z,7.80
2018-03-22T09:59:18.794Z,6.60
2018-03-22T10:01:46.369Z,5.00
2018-03-22T10:04:13.979Z,6.77
2018-03-22T10:06:41.536Z,6.13
2018-03-22T10:09:09.301Z,7.97
2018-03-22T10:11:36.994Z,6.07
2018-03-22T10:14:04.747Z,5.60
2018-03-22T10:16:32.378Z,9.17
2018-03-22T10:18:59.937Z,6.37
2018-03-22T10:21:27.877Z,7.03
2018-03-22T10:23:55.488Z,6.70
2018-03-22T10:26:23.021Z,8.83
2018-03-22T10:28:50.565Z,6.00
2018-03-22T10:31:18.099Z,6.80
2018-03-22T10:33:45.753Z,6.63
2018-03-22T10:36:13.346Z,9.50
2018-03-22T10:38:40.923Z,10.37
2018-03-22T10:41:08.503Z,6.37
2018-03-22T10:43:36.145Z,7.90
2018-03-22T10:46:03.742Z,5.77
2018-03-22T10:48:31.359Z,5.63
2018-03-22T10:50:59.039Z,6.50
2018-03-22T10:53:26.623Z,7.30
2018-03-22T10:55:54.960Z,7.20
2018-03-22T10:58:22.548Z,6.83
2018-03-22T11:00:55.731Z,9.13
2018-03-22T11:03:27.255Z,6.37
2018-03-22T11:05:54.948Z,8.53
2018-03-22T11:08:22.575Z,8.37
2018-03-22T11:10:50.220Z,10.30
2018-03-22T11:13:17.811Z,9.00
2018-03-22T11:15:45.437Z,9.20
2018-03-22T11:18:13.123Z,9.70
2018-03-22T11:20:40.713Z,7.17
2018-03-22T11:23:08.259Z,14.87
2018-03-22T11:25:35.923Z,7.67
2018-03-22T11:28:03.538Z,8.27
2018-03-22T11:30:31.247Z,8.37
2018-03-22T11:32:58.802Z,9.93
2018-03-22T11:35:26.351Z,9.73
2018-03-22T11:37:54.078Z,7.17
2018-03-22T11:40:21.786Z,9.70
2018-03-22T11:42:49.366Z,11.23
2018-03-22T11:45:16.951Z,9.53
2018-03-22T11:47:44.562Z,8.00
2018-03-22T11:50:12.193Z,11.93
2018-03-22T11:52:39.924Z,7.57
2018-03-22T11:55:07.619Z,12.13
2018-03-22T11:57:35.225Z,7.77
2018-03-22T12:00:02.925Z,10.77
2018-03-22T12:02:30.546Z,7.83
2018-03-22T12:04:58.193Z,9.97
2018-03-22T12:07:25.794Z,9.30
2018-03-22T12:09:53.433Z,12.70
2018-03-22T12:12:21.064Z,9.53
2018-03-22T12:14:48.644Z,15.17
2018-03-22T12:17:16.307Z,9.83
2018-03-22T12:19:43.861Z,12.80
2018-03-22T12:22:11.460Z,11.00
2018-03-22T12:24:39.025Z,9.77
2018-03-22T12:27:06.723Z,15.27
2018-03-22T12:29:34.365Z,9.50
2018-03-22T12:32:02.752Z,11.17
2018-03-22T12:34:30.349Z,15.47
2018-03-22T12:36:58.004Z,12.27
2018-03-22T12:39:25.628Z,13.50
2018-03-22T12:41:53.169Z,11.00
2018-03-22T12:44:21.503Z,15.23
2018-03-22T12:46:49.264Z,18.27
2018-03-22T12:49:16.900Z,21.00
2018-03-22T12:51:44.498Z,19.80
2018-03-22T12:54:12.274Z,17.23
2018-03-22T12:56:40.828Z,16.80
2018-03-22T12:59:08.529Z,16.87
2018-03-22T13:01:36.125Z,19.20
2018-03-22T13:04:03.797Z,23.87
2018-03-22T13:06:31.430Z,21.23
2018-03-22T13:08:59.877Z,14.83
2018-03-22T13:11:27.491Z,21.07
2018-03-22T13:13:55.063Z,17.77
2018-03-22T13:16:22.650Z,17.23
2018-03-22T13:18:50.253Z,18.90
2018-03-22T13:21:18.574Z,14.73
2018-03-22T13:23:46.478Z,19.03
2018-03-22T13:26:14.124Z,22.07
2018-03-22T13:28:41.773Z,17.63
2018-03-22T13:31:09.338Z,18.10
2018-03-22T13:33:36.963Z,17.07
2018-03-22T13:36:04.511Z,14.30
2018-03-22T13:38:32.076Z,13.97
2018-03-22T13:40:59.694Z,16.50
2018-03-22T13:43:27.342Z,21.83
2018-03-22T13:45:55.005Z,18.07
2018-03-22T13:48:22.633Z,14.50
2018-03-22T13:50:50.814Z,15.07
2018-03-22T13:53:23.574Z,14.77
2018-03-22T13:55:51.165Z,15.77
2018-03-22T13:58:18.770Z,14.13
2018-03-22T14:00:46.421Z,19.43
2018-03-22T14:03:13.982Z,17.07
2018-03-22T14:05:41.681Z,12.03
2018-03-22T14:08:09.259Z,14.80
2018-03-22T14:10:36.969Z,14.73
2018-03-22T14:13:04.714Z,12.13
2018-03-22T14:15:32.317Z,10.40
2018-03-22T14:17:59.966Z,11.03
2018-03-22T14:20:27.534Z,16.10
2018-03-22T14:22:55.178Z,15.67
2018-03-22T14:25:22.826Z,12.00
2018-03-22T14:27:50.384Z,12.07
2018-03-22T14:30:17.982Z,10.87
2018-03-22T14:32:45.639Z,14.90
2018-03-22T14:35:14.047Z,14.60
2018-03-22T14:37:42.447Z,16.70
2018-03-22T14:40:10.108Z,13.40
2018-03-22T14:42:37.787Z,14.73
2018-03-22T14:45:05.365Z,15.47
2018-03-22T14:47:32.954Z,12.70
2018-03-22T14:50:00.677Z,15.93
2018-03-22T14:52:28.276Z,26.07
2018-03-22T14:54:55.844Z,10.67
2018-03-22T14:57:23.472Z,16.00
2018-03-22T14:59:51.072Z,14.23
2018-03-22T15:02:19.426Z,18.00
2018-03-22T15:04:47.002Z,14.80
2018-03-22T15:07:14.663Z,12.03
2018-03-22T15:09:43.128Z,13.10
2018-03-22T15:12:10.701Z,13.17
2018-03-22T15:14:38.258Z,12.27
2018-03-22T15:17:06.629Z,13.97
2018-03-22T15:19:34.946Z,14.23
2018-03-22T15:22:02.655Z,13.63
2018-03-22T15:24:30.213Z,15.40
2018-03-22T15:26:57.909Z,14.70
2018-03-22T15:29:25.458Z,15.80
2018-03-22T15:31:53.809Z,14.50
2018-03-22T15:34:21.392Z,16.50
2018-03-22T15:36:48.941Z,19.47
2018-03-22T15:39:16.520Z,19.13
2018-03-22T15:41:44.887Z,20.10
2018-03-22T15:44:12.465Z,19.67
2018-03-22T15:46:40.038Z,16.93
2018-03-22T15:49:07.660Z,16.30
2018-03-22T15:51:35.501Z,19.40
2018-03-22T15:54:03.061Z,21.17
2018-03-22T15:56:30.641Z,20.53
2018-03-22T15:58:58.198Z,19.93
2018-03-22T16:01:25.797Z,21.43
2018-03-22T16:03:53.354Z,19.27
2018-03-22T16:06:22.736Z,20.87
2018-03-22T16:08:50.352Z,23.37
2018-03-22T16:11:17.994Z,20.20
2018-03-22T16:13:45.576Z,21.93
2018-03-22T16:16:13.251Z,18.57
2018-03-22T16:18:40.851Z,18.87
2018-03-22T16:21:09.267Z,20.50
2018-03-22T16:23:37.674Z,18.73
2018-03-22T16:26:05.757Z,17.67
2018-03-22T16:28:33.335Z,18.37
2018-03-22T16:31:00.995Z,20.27
2018-03-22T16:33:28.622Z,16.43
2018-03-22T16:35:56.249Z,19.13
2018-03-22T16:38:23.857Z,17.57
2018-03-22T16:40:51.434Z,21.33
2018-03-22T16:43:19.010Z,18.57
2018-03-22T16:45:47.353Z,17.17
2018-03-22T16:48:14.901Z,17.83
2018-03-22T16:50:42.509Z,17.57
2018-03-22T16:53:10.157Z,16.47
2018-03-22T16:55:37.773Z,18.30
2018-03-22T16:58:05.427Z,16.50
2018-03-22T17:00:33.033Z,17.03
2018-03-22T17:03:00.609Z,18.80
2018-03-22T17:05:28.167Z,22.43
2018-03-22T17:07:55.782Z,18.13
2018-03-22T17:10:23.349Z,18.87
2018-03-22T17:12:50.964Z,17.67
2018-03-22T17:15:19.350Z,20.13
2018-03-22T17:17:47.678Z,17.20
2018-03-22T17:20:15.290Z,21.23
2018-03-22T17:22:42.930Z,16.07
2018-03-22T17:25:11.273Z,16.33
2018-03-22T17:27:38.867Z,16.17
2018-03-22T17:30:06.497Z,18.00
2018-03-22T17:32:34.096Z,16.83
2018-03-22T17:35:01.709Z,17.37
2018-03-22T17:37:29.301Z,18.97
2018-03-22T17:39:56.845Z,16.97
2018-03-22T17:42:24.387Z,18.50
2018-03-22T17:44:51.964Z,17.53
2018-03-22T17:47:19.509Z,18.67
2018-03-22T17:49:47.104Z,15.83
2018-03-22T17:52:14.736Z,18.20
2018-03-22T17:54:42.395Z,17.50
2018-03-22T17:57:09.954Z,20.27
2018-03-22T17:59:37.555Z,20.90
2018-03-22T18:02:05.935Z,20.90
2018-03-22T18:04:33.617Z,22.77
2018-03-22T18:07:01.215Z,24.07
2018-03-22T18:09:28.856Z,29.77
2018-03-22T18:11:56.455Z,18.70
2018-03-22T18:14:23.997Z,19.30
2018-03-22T18:16:51.560Z,21.03
2018-03-22T18:19:19.154Z,24.03
2018-03-22T18:21:46.734Z,21.17
2018-03-22T18:24:14.285Z,21.80
2018-03-22T18:26:42.734Z,23.63
2018-03-22T18:29:10.296Z,24.23
2018-03-22T18:31:37.888Z,20.47
2018-03-22T18:34:06.225Z,21.30
2018-03-22T18:36:33.848Z,20.33
2018-03-22T18:39:01.402Z,21.73
2018-03-22T18:41:28.969Z,24.50
2018-03-22T18:43:56.605Z,22.20
2018-03-22T18:46:24.228Z,24.97
2018-03-22T18:48:51.802Z,19.37
2018-03-22T18:51:19.418Z,20.97
2018-03-22T18:53:46.963Z,21.00
2018-03-22T18:56:14.512Z,23.23
2018-03-22T18:58:42.091Z,20.57
2018-03-22T19:01:09.701Z,19.50
2018-03-22T19:03:37.312Z,22.03
2018-03-22T19:06:04.919Z,21.27
2018-03-22T19:08:32.451Z,22.77
2018-03-22T19:10:59.995Z,20.43
2018-03-22T19:13:27.609Z,21.23
2018-03-22T19:15:55.178Z,20.47
2018-03-22T19:18:22.800Z,20.20
2018-03-22T19:20:50.443Z,22.30
2018-03-22T19:23:18.036Z,20.40
2018-03-22T19:25:45.613Z,21.63
2018-03-22T19:28:13.206Z,23.90
2018-03-22T19:30:40.769Z,22.70
2018-03-22T19:33:08.394Z,20.77
2018-03-22T19:35:35.959Z,21.57
2018-03-22T19:38:03.588Z,22.17
2018-03-22T19:40:31.195Z,24.30
2018-03-22T19:42:58.786Z,22.37
2018-03-22T19:45:26.345Z,24.43
2018-03-22T19:47:53.891Z,22.97
2018-03-22T19:50:21.469Z,22.07
2018-03-22T19:52:49.015Z,22.63
2018-03-22T19:55:16.676Z,24.10
2018-03-22T19:57:44.267Z,26.33
2018-03-22T20:00:11.828Z,26.30
2018-03-22T20:02:39.408Z,23.57
2018-03-22T20:05:07.043Z,28.30
2018-03-22T20:07:34.652Z,25.97
2018-03-22T20:10:02.253Z,26.03
2018-03-22T20:12:29.854Z,27.43
2018-03-22T20:14:57.461Z,28.43
2018-03-22T20:17:25.013Z,31.43
2018-03-22T20:19:53.360Z,26.33
2018-03-22T20:22:20.973Z,29.20
2018-03-22T20:24:48.531Z,27.00
2018-03-22T20:27:16.086Z,27.40
2018-03-22T20:29:43.650Z,26.07
2018-03-22T20:32:11.257Z,25.90
2018-03-22T20:34:38.814Z,27.00
2018-03-22T20:37:06.351Z,26.13
2018-03-22T20:39:34.273Z,30.20
2018-03-22T20:42:02.598Z,25.03
2018-03-22T20:44:30.158Z,26.37
2018-03-22T20:46:57.717Z,25.03
2018-03-22T20:49:25.295Z,27.87
2018-03-22T20:51:52.881Z,28.80
2018-03-22T20:54:20.478Z,27.93
2018-03-22T20:56:48.105Z,26.10
2018-03-22T20:59:15.668Z,27.20
2018-03-22T21:01:43.208Z,25.80
2018-03-22T21:04:10.736Z,28.43
2018-03-22T21:06:38.385Z,28.97
2018-03-22T21:09:05.957Z,28.47
2018-03-22T21:11:33.534Z,26.87
2018-03-22T21:14:01.130Z,27.07
2018-03-22T21:16:29.449Z,31.60
2018-03-22T21:18:57.088Z,28.87
2018-03-22T21:21:24.673Z,28.67
2018-03-22T21:23:52.459Z,29.07
2018-03-22T21:26:20.069Z,26.17
2018-03-22T21:28:47.713Z,27.80
2018-03-22T21:31:16.037Z,25.97
2018-03-22T21:33:44.543Z,26.10
2018-03-22T21:36:12.237Z,26.20
2018-03-22T21:38:40.548Z,28.63
2018-03-22T21:41:08.129Z,27.00
2018-03-22T21:43:35.750Z,28.40
2018-03-22T21:46:03.295Z,32.57
2018-03-22T21:48:31.664Z,26.63
2018-03-22T21:51:02.018Z,28.53
2018-03-22T21:53:29.611Z,26.23
2018-03-22T21:55:57.321Z,29.43
2018-03-22T21:58:24.879Z,29.07
2018-03-22T22:00:52.498Z,27.83
2018-03-22T22:03:20.095Z,29.57
2018-03-22T22:05:47.674Z,28.27
2018-03-22T22:08:15.996Z,25.77
2018-03-22T22:10:43.602Z,25.50
2018-03-22T22:13:11.176Z,23.43
2018-03-22T22:15:39.517Z,35.63
2018-03-22T22:18:07.106Z,27.80
2018-03-22T22:20:34.651Z,26.20
2018-03-22T22:23:02.249Z,29.63
2018-03-22T22:25:29.790Z,27.70
2018-03-22T22:27:57.428Z,23.93
2018-03-22T22:30:25.814Z,26.43
2018-03-22T22:32:53.442Z,27.90
2018-03-22T22:35:21.866Z,25.10
2018-03-22T22:37:49.417Z,25.97
2018-03-22T22:40:17.006Z,30.13
2018-03-22T22:42:44.655Z,26.13
2018-03-22T22:45:12.233Z,28.93
2018-03-22T22:47:39.890Z,26.47
2018-03-22T22:50:08.195Z,27.43
2018-03-22T22:52:35.805Z,26.53
2018-03-22T22:55:03.377Z,29.87
2018-03-22T22:57:31.041Z,25.63
2018-03-22T22:59:58.607Z,27.17
2018-03-22T23:02:26.181Z,27.13
2018-03-22T23:04:53.721Z,27.20
2018-03-22T23:07:21.307Z,26.77
2018-03-22T23:09:48.897Z,28.57
2018-03-22T23:12:16.452Z,27.47
2018-03-22T23:14:44.066Z,26.43
2018-03-22T23:17:12.395Z,26.37
2018-03-22T23:19:40.005Z,28.37
2018-03-22T23:22:07.585Z,26.50
2018-03-22T23:24:35.145Z,30.63
2018-03-22T23:27:02.721Z,25.97
2018-03-22T23:29:30.274Z,27.23
2018-03-22T23:31:57.852Z,25.83
2018-03-22T23:34:25.414Z,27.20
2018-03-22T23:36:52.962Z,25.50
2018-03-22T23:39:20.496Z,27.20
2018-03-22T23:41:48.088Z,28.57
2018-03-22T23:44:15.609Z,27.87
2018-03-22T23:46:43.183Z,27.93
2018-03-22T23:49:10.776Z,28.70
2018-03-22T23:51:38.317Z,25.77
2018-03-22T23:54:05.982Z,26.20
2018-03-22T23:56:33.566Z,26.43
2018-03-22T23:59:01.062Z,26.60
